sensor_id;sensor_type;location;lat;lon;timestamp;P1;durP1;ratioP1;P2;durP2;ratioP2
74259;SDS011;62630;55.874;37.516;2022-08-03T00:01:16;9.52;;;5.95;;
74259;SDS011;62630;55.874;37.516;2022-08-03T00:03:42;15.85;;;6.55;;
74259;SDS011;62630;55.874;37.516;2022-08-03T00:06:08;16.55;;;6.57;;
74259;SDS011;62630;55.874;37.516;2022-08-03T00:08:34;14.15;;;6.30;;
74259;SDS011;62630;55.874;37.516;2022-08-03T00:10:59;11.95;;;5.55;;
74259;SDS011;62630;55.874;37.516;2022-08-03T00:13:26;12.05;;;5.90;;
74259;SDS011;62630;55.874;37.516;2022-08-03T00:15:51;9.55;;;5.25;;
74259;SDS011;62630;55.874;37.516;2022-08-03T00:18:20;17.27;;;6.57;;
74259;SDS011;62630;55.874;37.516;2022-08-03T00:20:46;13.50;;;5.68;;
74259;SDS011;62630;55.874;37.516;2022-08-03T00:23:11;9.35;;;6.25;;
74259;SDS011;62630;55.874;37.516;2022-08-03T00:25:37;15.82;;;6.47;;
74259;SDS011;62630;55.874;37.516;2022-08-03T00:28:03;13.50;;;6.25;;
74259;SDS011;62630;55.874;37.516;2022-08-03T00:30:31;13.55;;;6.75;;
74259;SDS011;62630;55.874;37.516;2022-08-03T00:32:57;11.93;;;6.25;;
74259;SDS011;62630;55.874;37.516;2022-08-03T00:35:24;13.02;;;6.63;;
74259;SDS011;62630;55.874;37.516;2022-08-03T00:37:50;8.60;;;5.78;;
74259;SDS011;62630;55.874;37.516;2022-08-03T00:40:16;11.65;;;6.68;;
74259;SDS011;62630;55.874;37.516;2022-08-03T00:42:52;14.82;;;6.65;;
74259;SDS011;62630;55.874;37.516;2022-08-03T00:45:23;17.38;;;7.03;;
74259;SDS011;62630;55.874;37.516;2022-08-03T00:47:50;13.68;;;6.90;;
74259;SDS011;62630;55.874;37.516;2022-08-03T00:50:17;19.70;;;7.15;;
74259;SDS011;62630;55.874;37.516;2022-08-03T00:52:44;12.95;;;6.88;;
74259;SDS011;62630;55.874;37.516;2022-08-03T00:55:10;12.32;;;7.40;;
74259;SDS011;62630;55.874;37.516;2022-08-03T00:57:36;14.73;;;7.40;;
74259;SDS011;62630;55.874;37.516;2022-08-03T01:00:04;13.60;;;6.72;;
74259;SDS011;62630;55.874;37.516;2022-08-03T01:02:31;10.25;;;6.72;;
74259;SDS011;62630;55.874;37.516;2022-08-03T01:04:57;16.25;;;6.95;;
74259;SDS011;62630;55.874;37.516;2022-08-03T01:13:34;18.23;;;6.60;;
74259;SDS011;62630;55.874;37.516;2022-08-03T01:16:27;12.52;;;6.82;;
74259;SDS011;62630;55.874;37.516;2022-08-03T01:18:59;15.70;;;6.18;;
74259;SDS011;62630;55.874;37.516;2022-08-03T01:22:04;11.93;;;6.40;;
74259;SDS011;62630;55.874;37.516;2022-08-03T01:24:51;14.82;;;6.97;;
74259;SDS011;62630;55.874;37.516;2022-08-03T01:27:20;12.07;;;6.57;;
74259;SDS011;62630;55.874;37.516;2022-08-03T01:30:01;13.77;;;6.70;;
74259;SDS011;62630;55.874;37.516;2022-08-03T01:32:49;13.57;;;6.93;;
74259;SDS011;62630;55.874;37.516;2022-08-03T01:35:42;13.25;;;7.60;;
74259;SDS011;62630;55.874;37.516;2022-08-03T01:38:12;17.08;;;7.28;;
74259;SDS011;62630;55.874;37.516;2022-08-03T01:40:46;13.35;;;7.32;;
74259;SDS011;62630;55.874;37.516;2022-08-03T01:43:15;14.65;;;7.18;;
74259;SDS011;62630;55.874;37.516;2022-08-03T01:45:43;11.07;;;7.18;;
74259;SDS011;62630;55.874;37.516;2022-08-03T01:48:10;13.65;;;6.80;;
74259;SDS011;62630;55.874;37.516;2022-08-03T01:50:39;12.10;;;7.15;;
74259;SDS011;62630;55.874;37.516;2022-08-03T01:53:07;16.50;;;8.27;;
74259;SDS011;62630;55.874;37.516;2022-08-03T01:55:34;11.32;;;7.35;;
74259;SDS011;62630;55.874;37.516;2022-08-03T01:58:02;13.93;;;6.97;;
74259;SDS011;62630;55.874;37.516;2022-08-03T02:00:32;10.77;;;7.63;;
74259;SDS011;62630;55.874;37.516;2022-08-03T02:02:59;11.27;;;6.88;;
74259;SDS011;62630;55.874;37.516;2022-08-03T02:05:26;16.27;;;8.13;;
74259;SDS011;62630;55.874;37.516;2022-08-03T02:07:54;17.08;;;7.43;;
74259;SDS011;62630;55.874;37.516;2022-08-03T02:12:47;14.38;;;7.40;;
74259;SDS011;62630;55.874;37.516;2022-08-03T02:15:14;16.20;;;7.60;;
74259;SDS011;62630;55.874;37.516;2022-08-03T02:20:07;17.10;;;7.90;;
74259;SDS011;62630;55.874;37.516;2022-08-03T02:22:37;15.02;;;7.47;;
74259;SDS011;62630;55.874;37.516;2022-08-03T02:25:04;14.80;;;8.18;;
74259;SDS011;62630;55.874;37.516;2022-08-03T02:27:30;14.27;;;7.78;;
74259;SDS011;62630;55.874;37.516;2022-08-03T02:30:06;12.73;;;7.00;;
74259;SDS011;62630;55.874;37.516;2022-08-03T02:32:35;14.63;;;7.03;;
74259;SDS011;62630;55.874;37.516;2022-08-03T02:35:03;11.00;;;7.05;;
74259;SDS011;62630;55.874;37.516;2022-08-03T02:37:41;11.55;;;7.18;;
74259;SDS011;62630;55.874;37.516;2022-08-03T02:40:11;12.10;;;7.15;;
74259;SDS011;62630;55.874;37.516;2022-08-03T02:42:39;13.57;;;7.30;;
74259;SDS011;62630;55.874;37.516;2022-08-03T02:45:08;14.73;;;7.38;;
74259;SDS011;62630;55.874;37.516;2022-08-03T02:47:38;14.00;;;7.47;;
74259;SDS011;62630;55.874;37.516;2022-08-03T02:50:05;15.20;;;7.75;;
74259;SDS011;62630;55.874;37.516;2022-08-03T02:52:35;15.40;;;8.07;;
74259;SDS011;62630;55.874;37.516;2022-08-03T02:55:02;16.35;;;8.05;;
74259;SDS011;62630;55.874;37.516;2022-08-03T02:57:30;14.85;;;8.30;;
74259;SDS011;62630;55.874;37.516;2022-08-03T02:59:58;19.02;;;7.90;;
74259;SDS011;62630;55.874;37.516;2022-08-03T03:02:25;21.80;;;8.30;;
74259;SDS011;62630;55.874;37.516;2022-08-03T03:04:55;15.52;;;7.43;;
74259;SDS011;62630;55.874;37.516;2022-08-03T03:07:22;17.10;;;7.65;;
74259;SDS011;62630;55.874;37.516;2022-08-03T03:09:48;16.77;;;8.27;;
74259;SDS011;62630;55.874;37.516;2022-08-03T03:12:14;14.65;;;7.90;;
74259;SDS011;62630;55.874;37.516;2022-08-03T03:14:40;11.32;;;7.20;;
74259;SDS011;62630;55.874;37.516;2022-08-03T03:17:06;13.18;;;7.85;;
74259;SDS011;62630;55.874;37.516;2022-08-03T03:19:34;18.02;;;7.68;;
74259;SDS011;62630;55.874;37.516;2022-08-03T03:22:03;13.95;;;8.70;;
74259;SDS011;62630;55.874;37.516;2022-08-03T03:24:31;14.23;;;8.02;;
74259;SDS011;62630;55.874;37.516;2022-08-03T03:26:57;11.45;;;7.47;;
74259;SDS011;62630;55.874;37.516;2022-08-03T03:29:23;11.82;;;8.10;;
74259;SDS011;62630;55.874;37.516;2022-08-03T03:31:49;12.55;;;8.45;;
74259;SDS011;62630;55.874;37.516;2022-08-03T03:34:14;14.27;;;8.57;;
74259;SDS011;62630;55.874;37.516;2022-08-03T03:36:41;15.07;;;8.52;;
74259;SDS011;62630;55.874;37.516;2022-08-03T03:39:06;12.98;;;8.25;;
74259;SDS011;62630;55.874;37.516;2022-08-03T03:41:32;16.33;;;8.98;;
74259;SDS011;62630;55.874;37.516;2022-08-03T03:43:59;16.70;;;8.77;;
74259;SDS011;62630;55.874;37.516;2022-08-03T03:46:24;14.88;;;8.85;;
74259;SDS011;62630;55.874;37.516;2022-08-03T03:48:50;13.77;;;8.52;;
74259;SDS011;62630;55.874;37.516;2022-08-03T03:51:16;16.58;;;7.45;;
74259;SDS011;62630;55.874;37.516;2022-08-03T03:53:58;20.83;;;8.77;;
74259;SDS011;62630;55.874;37.516;2022-08-03T03:56:24;16.38;;;8.45;;
74259;SDS011;62630;55.874;37.516;2022-08-03T03:58:51;15.77;;;8.95;;
74259;SDS011;62630;55.874;37.516;2022-08-03T04:01:17;18.23;;;8.98;;
74259;SDS011;62630;55.874;37.516;2022-08-03T04:03:42;12.77;;;8.82;;
74259;SDS011;62630;55.874;37.516;2022-08-03T04:06:08;14.18;;;10.25;;
74259;SDS011;62630;55.874;37.516;2022-08-03T04:08:53;17.17;;;9.40;;
74259;SDS011;62630;55.874;37.516;2022-08-03T04:11:47;17.15;;;9.43;;
74259;SDS011;62630;55.874;37.516;2022-08-03T04:14:24;13.48;;;8.18;;
74259;SDS011;62630;55.874;37.516;2022-08-03T04:16:54;17.73;;;8.65;;
74259;SDS011;62630;55.874;37.516;2022-08-03T04:19:27;15.18;;;8.27;;
74259;SDS011;62630;55.874;37.516;2022-08-03T04:21:59;14.98;;;8.57;;
74259;SDS011;62630;55.874;37.516;2022-08-03T04:24:29;15.32;;;8.00;;
74259;SDS011;62630;55.874;37.516;2022-08-03T04:27:00;17.88;;;8.60;;
74259;SDS011;62630;55.874;37.516;2022-08-03T04:29:29;14.75;;;8.45;;
74259;SDS011;62630;55.874;37.516;2022-08-03T04:31:58;12.43;;;8.10;;
74259;SDS011;62630;55.874;37.516;2022-08-03T04:34:25;12.30;;;7.90;;
74259;SDS011;62630;55.874;37.516;2022-08-03T04:36:52;17.15;;;8.82;;
74259;SDS011;62630;55.874;37.516;2022-08-03T04:39:23;13.75;;;7.55;;
74259;SDS011;62630;55.874;37.516;2022-08-03T04:41:54;13.77;;;8.55;;
74259;SDS011;62630;55.874;37.516;2022-08-03T04:44:22;15.88;;;8.43;;
74259;SDS011;62630;55.874;37.516;2022-08-03T04:46:49;15.18;;;8.40;;
74259;SDS011;62630;55.874;37.516;2022-08-03T04:49:15;14.50;;;8.32;;
74259;SDS011;62630;55.874;37.516;2022-08-03T04:51:41;12.95;;;8.35;;
74259;SDS011;62630;55.874;37.516;2022-08-03T04:54:16;10.60;;;7.63;;
74259;SDS011;62630;55.874;37.516;2022-08-03T04:56:42;15.38;;;8.40;;
74259;SDS011;62630;55.874;37.516;2022-08-03T04:59:08;17.80;;;7.88;;
74259;SDS011;62630;55.874;37.516;2022-08-03T05:01:34;15.18;;;7.63;;
74259;SDS011;62630;55.874;37.516;2022-08-03T05:04:00;13.65;;;7.35;;
74259;SDS011;62630;55.874;37.516;2022-08-03T05:06:26;20.25;;;8.05;;
74259;SDS011;62630;55.874;37.516;2022-08-03T05:08:51;15.43;;;8.02;;
74259;SDS011;62630;55.874;37.516;2022-08-03T05:11:17;12.60;;;7.22;;
74259;SDS011;62630;55.874;37.516;2022-08-03T05:13:46;14.32;;;8.07;;
74259;SDS011;62630;55.874;37.516;2022-08-03T05:16:12;13.85;;;8.13;;
74259;SDS011;62630;55.874;37.516;2022-08-03T05:18:39;13.80;;;8.38;;
74259;SDS011;62630;55.874;37.516;2022-08-03T05:21:06;14.10;;;7.88;;
74259;SDS011;62630;55.874;37.516;2022-08-03T05:23:31;13.20;;;7.57;;
74259;SDS011;62630;55.874;37.516;2022-08-03T05:25:57;15.20;;;7.65;;
74259;SDS011;62630;55.874;37.516;2022-08-03T05:28:22;15.60;;;8.00;;
74259;SDS011;62630;55.874;37.516;2022-08-03T05:30:48;15.05;;;7.32;;
74259;SDS011;62630;55.874;37.516;2022-08-03T05:33:13;10.00;;;6.95;;
74259;SDS011;62630;55.874;37.516;2022-08-03T05:35:39;14.30;;;7.25;;
74259;SDS011;62630;55.874;37.516;2022-08-03T05:38:05;13.35;;;7.43;;
74259;SDS011;62630;55.874;37.516;2022-08-03T05:40:30;18.40;;;8.30;;
74259;SDS011;62630;55.874;37.516;2022-08-03T05:42:56;19.67;;;7.50;;
74259;SDS011;62630;55.874;37.516;2022-08-03T05:45:23;17.00;;;7.70;;
74259;SDS011;62630;55.874;37.516;2022-08-03T05:47:52;16.42;;;7.60;;
74259;SDS011;62630;55.874;37.516;2022-08-03T05:50:18;13.65;;;7.65;;
74259;SDS011;62630;55.874;37.516;2022-08-03T05:52:44;13.30;;;6.70;;
74259;SDS011;62630;55.874;37.516;2022-08-03T05:55:10;13.48;;;7.05;;
74259;SDS011;62630;55.874;37.516;2022-08-03T05:57:40;21.60;;;5.93;;
74259;SDS011;62630;55.874;37.516;2022-08-03T06:00:07;15.15;;;6.50;;
74259;SDS011;62630;55.874;37.516;2022-08-03T06:02:34;11.30;;;6.55;;
74259;SDS011;62630;55.874;37.516;2022-08-03T06:05:00;19.77;;;6.70;;
74259;SDS011;62630;55.874;37.516;2022-08-03T06:07:26;21.33;;;6.32;;
74259;SDS011;62630;55.874;37.516;2022-08-03T06:09:52;11.93;;;5.65;;
74259;SDS011;62630;55.874;37.516;2022-08-03T06:12:17;12.75;;;7.47;;
74259;SDS011;62630;55.874;37.516;2022-08-03T06:14:43;12.18;;;8.50;;
74259;SDS011;62630;55.874;37.516;2022-08-03T06:17:09;17.60;;;7.72;;
74259;SDS011;62630;55.874;37.516;2022-08-03T06:19:35;12.77;;;7.57;;
74259;SDS011;62630;55.874;37.516;2022-08-03T06:22:01;13.90;;;6.70;;
74259;SDS011;62630;55.874;37.516;2022-08-03T06:24:26;13.63;;;6.65;;
74259;SDS011;62630;55.874;37.516;2022-08-03T06:26:52;17.15;;;6.78;;
74259;SDS011;62630;55.874;37.516;2022-08-03T06:29:17;12.65;;;6.50;;
74259;SDS011;62630;55.874;37.516;2022-08-03T06:31:43;15.07;;;6.45;;
74259;SDS011;62630;55.874;37.516;2022-08-03T06:34:08;10.30;;;5.97;;
74259;SDS011;62630;55.874;37.516;2022-08-03T06:36:34;12.90;;;5.90;;
74259;SDS011;62630;55.874;37.516;2022-08-03T06:38:59;15.55;;;5.70;;
74259;SDS011;62630;55.874;37.516;2022-08-03T06:41:26;9.95;;;4.72;;
74259;SDS011;62630;55.874;37.516;2022-08-03T06:43:52;17.55;;;5.28;;
74259;SDS011;62630;55.874;37.516;2022-08-03T06:46:18;18.95;;;5.22;;
74259;SDS011;62630;55.874;37.516;2022-08-03T06:48:44;15.65;;;4.88;;
74259;SDS011;62630;55.874;37.516;2022-08-03T06:51:09;22.27;;;5.30;;
74259;SDS011;62630;55.874;37.516;2022-08-03T06:53:35;10.55;;;5.07;;
74259;SDS011;62630;55.874;37.516;2022-08-03T06:56:00;20.83;;;5.45;;
74259;SDS011;62630;55.874;37.516;2022-08-03T06:58:26;8.70;;;3.97;;
74259;SDS011;62630;55.874;37.516;2022-08-03T07:00:51;10.48;;;4.47;;
74259;SDS011;62630;55.874;37.516;2022-08-03T07:03:17;12.55;;;4.30;;
74259;SDS011;62630;55.874;37.516;2022-08-03T07:05:43;9.52;;;3.75;;
74259;SDS011;62630;55.874;37.516;2022-08-03T07:08:12;5.85;;;3.80;;
74259;SDS011;62630;55.874;37.516;2022-08-03T07:10:38;6.45;;;3.60;;
74259;SDS011;62630;55.874;37.516;2022-08-03T07:13:04;6.22;;;3.65;;
74259;SDS011;62630;55.874;37.516;2022-08-03T07:15:30;6.22;;;3.50;;
74259;SDS011;62630;55.874;37.516;2022-08-03T07:17:58;8.18;;;3.33;;
74259;SDS011;62630;55.874;37.516;2022-08-03T07:20:23;12.15;;;4.55;;
74259;SDS011;62630;55.874;37.516;2022-08-03T07:22:49;10.70;;;4.40;;
74259;SDS011;62630;55.874;37.516;2022-08-03T07:25:15;11.20;;;3.65;;
74259;SDS011;62630;55.874;37.516;2022-08-03T07:27:44;4.35;;;3.38;;
74259;SDS011;62630;55.874;37.516;2022-08-03T07:30:14;11.00;;;3.85;;
74259;SDS011;62630;55.874;37.516;2022-08-03T07:32:40;6.93;;;2.80;;
74259;SDS011;62630;55.874;37.516;2022-08-03T07:35:07;3.25;;;2.60;;
74259;SDS011;62630;55.874;37.516;2022-08-03T07:37:35;8.55;;;3.17;;
74259;SDS011;62630;55.874;37.516;2022-08-03T07:40:03;8.80;;;3.00;;
74259;SDS011;62630;55.874;37.516;2022-08-03T07:42:29;3.45;;;3.15;;
74259;SDS011;62630;55.874;37.516;2022-08-03T07:44:55;5.93;;;3.75;;
74259;SDS011;62630;55.874;37.516;2022-08-03T07:47:22;7.68;;;2.92;;
74259;SDS011;62630;55.874;37.516;2022-08-03T07:49:52;5.22;;;4.03;;
74259;SDS011;62630;55.874;37.516;2022-08-03T07:52:18;5.50;;;3.50;;
74259;SDS011;62630;55.874;37.516;2022-08-03T07:55:03;7.30;;;4.05;;
74259;SDS011;62630;55.874;37.516;2022-08-03T07:57:32;16.13;;;6.50;;
74259;SDS011;62630;55.874;37.516;2022-08-03T07:59:58;6.55;;;3.70;;
74259;SDS011;62630;55.874;37.516;2022-08-03T08:02:24;8.90;;;4.45;;
74259;SDS011;62630;55.874;37.516;2022-08-03T08:04:49;5.22;;;2.80;;
74259;SDS011;62630;55.874;37.516;2022-08-03T08:07:15;8.60;;;2.72;;
74259;SDS011;62630;55.874;37.516;2022-08-03T08:09:41;7.35;;;3.28;;
74259;SDS011;62630;55.874;37.516;2022-08-03T08:12:07;8.25;;;2.97;;
74259;SDS011;62630;55.874;37.516;2022-08-03T08:14:35;4.53;;;3.13;;
74259;SDS011;62630;55.874;37.516;2022-08-03T08:17:01;4.90;;;2.90;;
74259;SDS011;62630;55.874;37.516;2022-08-03T08:19:26;6.00;;;2.83;;
74259;SDS011;62630;55.874;37.516;2022-08-03T08:21:52;3.95;;;2.47;;
74259;SDS011;62630;55.874;37.516;2022-08-03T08:24:17;6.13;;;3.20;;
74259;SDS011;62630;55.874;37.516;2022-08-03T08:26:43;6.93;;;2.70;;
74259;SDS011;62630;55.874;37.516;2022-08-03T08:29:09;8.13;;;2.65;;
74259;SDS011;62630;55.874;37.516;2022-08-03T08:31:34;3.90;;;3.50;;
74259;SDS011;62630;55.874;37.516;2022-08-03T08:34:00;2.95;;;2.67;;
74259;SDS011;62630;55.874;37.516;2022-08-03T08:36:30;6.93;;;2.97;;
74259;SDS011;62630;55.874;37.516;2022-08-03T08:38:57;5.63;;;3.60;;
74259;SDS011;62630;55.874;37.516;2022-08-03T08:41:22;4.43;;;2.88;;
74259;SDS011;62630;55.874;37.516;2022-08-03T08:43:50;7.00;;;2.95;;
74259;SDS011;62630;55.874;37.516;2022-08-03T08:46:16;6.07;;;2.78;;
74259;SDS011;62630;55.874;37.516;2022-08-03T08:48:43;6.45;;;3.03;;
74259;SDS011;62630;55.874;37.516;2022-08-03T08:51:11;8.18;;;2.97;;
74259;SDS011;62630;55.874;37.516;2022-08-03T08:53:39;5.18;;;2.67;;
74259;SDS011;62630;55.874;37.516;2022-08-03T08:56:08;13.30;;;3.47;;
74259;SDS011;62630;55.874;37.516;2022-08-03T08:58:42;4.97;;;3.03;;
74259;SDS011;62630;55.874;37.516;2022-08-03T09:01:11;5.47;;;3.05;;
74259;SDS011;62630;55.874;37.516;2022-08-03T09:03:36;6.78;;;2.90;;
74259;SDS011;62630;55.874;37.516;2022-08-03T09:06:02;6.78;;;3.10;;
74259;SDS011;62630;55.874;37.516;2022-08-03T09:08:29;3.50;;;2.95;;
74259;SDS011;62630;55.874;37.516;2022-08-03T09:10:56;4.55;;;3.60;;
74259;SDS011;62630;55.874;37.516;2022-08-03T09:13:22;4.55;;;3.00;;
74259;SDS011;62630;55.874;37.516;2022-08-03T09:15:47;6.45;;;3.05;;
74259;SDS011;62630;55.874;37.516;2022-08-03T09:18:22;4.82;;;2.80;;
74259;SDS011;62630;55.874;37.516;2022-08-03T09:20:52;5.47;;;3.38;;
74259;SDS011;62630;55.874;37.516;2022-08-03T09:23:44;6.28;;;4.00;;
74259;SDS011;62630;55.874;37.516;2022-08-03T09:26:24;6.72;;;2.88;;
74259;SDS011;62630;55.874;37.516;2022-08-03T09:29:07;4.43;;;2.85;;
74259;SDS011;62630;55.874;37.516;2022-08-03T09:34:02;6.07;;;3.10;;
74259;SDS011;62630;55.874;37.516;2022-08-03T09:36:48;9.55;;;3.38;;
74259;SDS011;62630;55.874;37.516;2022-08-03T09:39:21;4.65;;;3.20;;
74259;SDS011;62630;55.874;37.516;2022-08-03T09:42:11;11.15;;;3.63;;
74259;SDS011;62630;55.874;37.516;2022-08-03T09:44:41;6.10;;;3.03;;
74259;SDS011;62630;55.874;37.516;2022-08-03T09:47:09;5.55;;;3.00;;
74259;SDS011;62630;55.874;37.516;2022-08-03T09:49:36;8.00;;;3.30;;
74259;SDS011;62630;55.874;37.516;2022-08-03T09:52:12;4.90;;;3.08;;
74259;SDS011;62630;55.874;37.516;2022-08-03T09:54:38;7.45;;;3.50;;
74259;SDS011;62630;55.874;37.516;2022-08-03T09:57:04;7.18;;;3.47;;
74259;SDS011;62630;55.874;37.516;2022-08-03T09:59:30;5.00;;;3.35;;
74259;SDS011;62630;55.874;37.516;2022-08-03T10:01:57;8.50;;;3.45;;
74259;SDS011;62630;55.874;37.516;2022-08-03T10:04:26;5.80;;;3.13;;
74259;SDS011;62630;55.874;37.516;2022-08-03T10:07:08;10.30;;;3.83;;
74259;SDS011;62630;55.874;37.516;2022-08-03T10:09:35;8.43;;;3.60;;
74259;SDS011;62630;55.874;37.516;2022-08-03T10:12:11;8.43;;;4.03;;
74259;SDS011;62630;55.874;37.516;2022-08-03T10:14:38;6.30;;;3.78;;
74259;SDS011;62630;55.874;37.516;2022-08-03T10:17:06;6.35;;;3.65;;
74259;SDS011;62630;55.874;37.516;2022-08-03T10:19:33;7.47;;;3.90;;
74259;SDS011;62630;55.874;37.516;2022-08-03T10:22:02;7.53;;;4.18;;
74259;SDS011;62630;55.874;37.516;2022-08-03T10:24:31;6.22;;;4.45;;
74259;SDS011;62630;55.874;37.516;2022-08-03T10:27:01;5.22;;;3.90;;
74259;SDS011;62630;55.874;37.516;2022-08-03T10:29:28;5.95;;;4.10;;
74259;SDS011;62630;55.874;37.516;2022-08-03T10:32:02;4.43;;;3.53;;
74259;SDS011;62630;55.874;37.516;2022-08-03T10:34:33;4.28;;;3.15;;
74259;SDS011;62630;55.874;37.516;2022-08-03T10:37:03;7.63;;;3.80;;
74259;SDS011;62630;55.874;37.516;2022-08-03T10:39:34;8.32;;;3.92;;
74259;SDS011;62630;55.874;37.516;2022-08-03T10:42:00;4.95;;;3.80;;
74259;SDS011;62630;55.874;37.516;2022-08-03T10:44:29;11.77;;;4.30;;
74259;SDS011;62630;55.874;37.516;2022-08-03T10:47:03;6.03;;;4.40;;
74259;SDS011;62630;55.874;37.516;2022-08-03T10:49:29;10.38;;;3.75;;
74259;SDS011;62630;55.874;37.516;2022-08-03T10:51:56;7.15;;;3.47;;
74259;SDS011;62630;55.874;37.516;2022-08-03T11:00:08;7.47;;;3.42;;
74259;SDS011;62630;55.874;37.516;2022-08-03T11:05:46;6.65;;;4.13;;
74259;SDS011;62630;55.874;37.516;2022-08-03T11:14:04;6.65;;;3.88;;
74259;SDS011;62630;55.874;37.516;2022-08-03T11:16:36;6.97;;;3.72;;
74259;SDS011;62630;55.874;37.516;2022-08-03T11:19:04;7.53;;;3.72;;
74259;SDS011;62630;55.874;37.516;2022-08-03T11:35:15;10.23;;;4.22;;
74259;SDS011;62630;55.874;37.516;2022-08-03T11:46:02;5.00;;;3.30;;
74259;SDS011;62630;55.874;37.516;2022-08-03T11:50:57;6.57;;;3.50;;
74259;SDS011;62630;55.874;37.516;2022-08-03T11:53:24;8.93;;;3.97;;
74259;SDS011;62630;55.874;37.516;2022-08-03T11:55:50;6.30;;;3.47;;
74259;SDS011;62630;55.874;37.516;2022-08-03T11:58:18;7.32;;;4.05;;
74259;SDS011;62630;55.874;37.516;2022-08-03T12:00:46;7.22;;;3.40;;
74259;SDS011;62630;55.874;37.516;2022-08-03T12:03:14;5.50;;;4.15;;
74259;SDS011;62630;55.874;37.516;2022-08-03T12:08:10;10.50;;;4.03;;
74259;SDS011;62630;55.874;37.516;2022-08-03T12:10:37;7.70;;;4.03;;
74259;SDS011;62630;55.874;37.516;2022-08-03T12:13:07;7.68;;;3.70;;
74259;SDS011;62630;55.874;37.516;2022-08-03T12:15:34;6.82;;;3.72;;
74259;SDS011;62630;55.874;37.516;2022-08-03T12:18:02;5.38;;;3.60;;
74259;SDS011;62630;55.874;37.516;2022-08-03T12:20:36;6.18;;;4.15;;
74259;SDS011;62630;55.874;37.516;2022-08-03T12:23:05;9.25;;;3.50;;
74259;SDS011;62630;55.874;37.516;2022-08-03T12:25:32;6.70;;;3.90;;
74259;SDS011;62630;55.874;37.516;2022-08-03T12:28:05;5.28;;;3.80;;
74259;SDS011;62630;55.874;37.516;2022-08-03T12:30:46;8.18;;;3.65;;
74259;SDS011;62630;55.874;37.516;2022-08-03T12:33:17;7.82;;;3.75;;
74259;SDS011;62630;55.874;37.516;2022-08-03T12:35:45;6.10;;;3.28;;
74259;SDS011;62630;55.874;37.516;2022-08-03T12:38:12;5.55;;;4.18;;
74259;SDS011;62630;55.874;37.516;2022-08-03T12:40:42;7.60;;;3.75;;
74259;SDS011;62630;55.874;37.516;2022-08-03T12:43:12;6.38;;;3.20;;
74259;SDS011;62630;55.874;37.516;2022-08-03T12:45:38;6.78;;;3.92;;
74259;SDS011;62630;55.874;37.516;2022-08-03T12:48:08;6.55;;;3.70;;
74259;SDS011;62630;55.874;37.516;2022-08-03T12:53:08;6.88;;;3.72;;
74259;SDS011;62630;55.874;37.516;2022-08-03T12:55:37;7.88;;;3.22;;
74259;SDS011;62630;55.874;37.516;2022-08-03T12:58:06;5.68;;;3.75;;
74259;SDS011;62630;55.874;37.516;2022-08-03T13:00:35;10.93;;;3.85;;
74259;SDS011;62630;55.874;37.516;2022-08-03T13:03:04;8.35;;;3.47;;
74259;SDS011;62630;55.874;37.516;2022-08-03T13:05:31;7.03;;;3.83;;
74259;SDS011;62630;55.874;37.516;2022-08-03T13:08:21;10.65;;;3.42;;
74259;SDS011;62630;55.874;37.516;2022-08-03T13:10:48;4.03;;;3.42;;
74259;SDS011;62630;55.874;37.516;2022-08-03T13:13:15;5.78;;;3.63;;
74259;SDS011;62630;55.874;37.516;2022-08-03T13:15:40;5.60;;;3.80;;
74259;SDS011;62630;55.874;37.516;2022-08-03T13:18:06;4.70;;;3.50;;
74259;SDS011;62630;55.874;37.516;2022-08-03T13:20:32;8.60;;;4.65;;
74259;SDS011;62630;55.874;37.516;2022-08-03T13:22:58;5.35;;;3.28;;
74259;SDS011;62630;55.874;37.516;2022-08-03T13:25:24;6.10;;;3.60;;
74259;SDS011;62630;55.874;37.516;2022-08-03T13:27:49;6.55;;;3.58;;
74259;SDS011;62630;55.874;37.516;2022-08-03T13:30:17;5.20;;;3.45;;
74259;SDS011;62630;55.874;37.516;2022-08-03T13:32:43;4.95;;;3.00;;
74259;SDS011;62630;55.874;37.516;2022-08-03T13:35:09;9.35;;;3.83;;
74259;SDS011;62630;55.874;37.516;2022-08-03T13:37:35;6.57;;;3.55;;
74259;SDS011;62630;55.874;37.516;2022-08-03T13:40:03;9.35;;;3.00;;
74259;SDS011;62630;55.874;37.516;2022-08-03T13:42:31;5.75;;;3.35;;
74259;SDS011;62630;55.874;37.516;2022-08-03T13:44:57;6.20;;;4.10;;
74259;SDS011;62630;55.874;37.516;2022-08-03T13:47:23;7.82;;;3.58;;
74259;SDS011;62630;55.874;37.516;2022-08-03T13:49:50;8.15;;;4.30;;
74259;SDS011;62630;55.874;37.516;2022-08-03T13:52:17;3.72;;;3.25;;
74259;SDS011;62630;55.874;37.516;2022-08-03T13:54:43;5.65;;;3.45;;
74259;SDS011;62630;55.874;37.516;2022-08-03T13:57:08;9.00;;;3.97;;
74259;SDS011;62630;55.874;37.516;2022-08-03T13:59:35;7.93;;;3.65;;
74259;SDS011;62630;55.874;37.516;2022-08-03T14:02:02;6.82;;;3.55;;
74259;SDS011;62630;55.874;37.516;2022-08-03T14:04:30;8.20;;;3.70;;
74259;SDS011;62630;55.874;37.516;2022-08-03T14:06:57;7.85;;;4.03;;
74259;SDS011;62630;55.874;37.516;2022-08-03T14:09:23;7.53;;;4.13;;
74259;SDS011;62630;55.874;37.516;2022-08-03T14:11:51;12.23;;;3.95;;
74259;SDS011;62630;55.874;37.516;2022-08-03T14:14:18;9.95;;;3.85;;
74259;SDS011;62630;55.874;37.516;2022-08-03T14:16:44;8.82;;;3.60;;
74259;SDS011;62630;55.874;37.516;2022-08-03T14:19:10;6.78;;;3.72;;
74259;SDS011;62630;55.874;37.516;2022-08-03T14:21:35;9.23;;;3.88;;
74259;SDS011;62630;55.874;37.516;2022-08-03T14:24:02;8.38;;;3.67;;
74259;SDS011;62630;55.874;37.516;2022-08-03T14:26:27;9.05;;;3.58;;
74259;SDS011;62630;55.874;37.516;2022-08-03T14:28:54;8.07;;;3.85;;
74259;SDS011;62630;55.874;37.516;2022-08-03T14:31:19;7.53;;;3.88;;
74259;SDS011;62630;55.874;37.516;2022-08-03T14:33:45;4.80;;;3.47;;
74259;SDS011;62630;55.874;37.516;2022-08-03T14:36:10;8.32;;;3.38;;
74259;SDS011;62630;55.874;37.516;2022-08-03T14:38:36;10.63;;;3.70;;
74259;SDS011;62630;55.874;37.516;2022-08-03T14:41:01;5.82;;;3.33;;
74259;SDS011;62630;55.874;37.516;2022-08-03T14:43:27;5.95;;;3.50;;
74259;SDS011;62630;55.874;37.516;2022-08-03T14:45:52;6.50;;;3.33;;
74259;SDS011;62630;55.874;37.516;2022-08-03T14:48:18;5.32;;;3.30;;
74259;SDS011;62630;55.874;37.516;2022-08-03T14:50:48;5.05;;;3.60;;
74259;SDS011;62630;55.874;37.516;2022-08-03T14:53:14;5.63;;;3.90;;
74259;SDS011;62630;55.874;37.516;2022-08-03T14:55:41;3.78;;;3.40;;
74259;SDS011;62630;55.874;37.516;2022-08-03T14:58:07;6.07;;;3.55;;
74259;SDS011;62630;55.874;37.516;2022-08-03T15:00:33;7.72;;;3.83;;
74259;SDS011;62630;55.874;37.516;2022-08-03T15:02:59;7.18;;;3.90;;
74259;SDS011;62630;55.874;37.516;2022-08-03T15:05:24;8.68;;;4.13;;
74259;SDS011;62630;55.874;37.516;2022-08-03T15:07:50;6.13;;;2.88;;
74259;SDS011;62630;55.874;37.516;2022-08-03T15:10:15;5.85;;;3.40;;
74259;SDS011;62630;55.874;37.516;2022-08-03T15:12:41;5.88;;;3.22;;
74259;SDS011;62630;55.874;37.516;2022-08-03T15:15:06;5.00;;;3.72;;
74259;SDS011;62630;55.874;37.516;2022-08-03T15:17:32;12.88;;;3.92;;
74259;SDS011;62630;55.874;37.516;2022-08-03T15:19:58;6.18;;;3.33;;
74259;SDS011;62630;55.874;37.516;2022-08-03T15:22:23;8.85;;;3.35;;
74259;SDS011;62630;55.874;37.516;2022-08-03T15:24:49;4.00;;;3.30;;
74259;SDS011;62630;55.874;37.516;2022-08-03T15:27:14;6.65;;;3.80;;
74259;SDS011;62630;55.874;37.516;2022-08-03T15:29:40;7.00;;;3.33;;
74259;SDS011;62630;55.874;37.516;2022-08-03T15:32:06;7.95;;;3.35;;